createdAt,value
2023-02-23T00:02:22.092Z,7.80
2023-02-23T00:04:50.653Z,4.80
2023-02-23T00:07:20.474Z,5.80
2023-02-23T00:09:51.139Z,5.40
2023-02-23T00:12:21.023Z,8.70
2023-02-23T00:14:49.489Z,6.90
2023-02-23T00:17:17.945Z,8.40
2023-02-23T00:19:49.585Z,9.10
2023-02-23T00:22:18.629Z,6.20
2023-02-23T00:24:48.251Z,8.00
2023-02-23T00:27:21.395Z,7.60
2023-02-23T00:29:51.250Z,5.90
2023-02-23T00:32:20.257Z,9.20
2023-02-23T00:34:52.671Z,7.00
2023-02-23T00:37:23.275Z,7.80
2023-02-23T00:39:53.232Z,5.40
2023-02-23T00:42:21.691Z,6.30
2023-02-23T00:44:50.993Z,6.70
2023-02-23T00:47:19.517Z,6.00
2023-02-23T00:49:51.088Z,7.50
2023-02-23T00:52:20.905Z,7.50
2023-02-23T00:54:49.344Z,6.60
2023-02-23T00:57:17.721Z,7.90
2023-02-23T00:59:46.166Z,7.20
2023-02-23T01:02:14.909Z,6.90
2023-02-23T01:04:43.414Z,9.20
2023-02-23T01:07:13.291Z,8.20
2023-02-23T01:09:41.957Z,6.60
2023-02-23T01:12:12.595Z,7.10
2023-02-23T01:14:42.730Z,4.80
2023-02-23T01:17:12.549Z,6.20
2023-02-23T01:19:40.982Z,6.00
2023-02-23T01:22:09.501Z,8.80
2023-02-23T01:24:39.443Z,8.30
2023-02-23T01:27:07.894Z,7.70
2023-02-23T01:29:36.415Z,7.00
2023-02-23T01:32:05.734Z,6.40
2023-02-23T01:34:34.244Z,6.80
2023-02-23T01:37:04.120Z,6.40
2023-02-23T01:39:33.260Z,8.20
2023-02-23T01:42:01.823Z,9.30
2023-02-23T01:44:31.356Z,7.70
2023-02-23T01:46:59.729Z,7.80
2023-02-23T01:49:31.174Z,6.30
2023-02-23T01:52:13.642Z,6.50
2023-02-23T01:54:52.580Z,8.20
2023-02-23T01:57:27.370Z,10.80
2023-02-23T01:59:56.200Z,6.70
2023-02-23T02:02:34.031Z,7.70
2023-02-23T02:05:06.684Z,6.90
2023-02-23T02:07:36.184Z,5.60
2023-02-23T02:10:11.110Z,9.00
2023-02-23T02:12:41.618Z,7.10
2023-02-23T02:15:17.743Z,8.30
2023-02-23T02:18:23.614Z,8.40
2023-02-23T02:21:12.723Z,7.50
2023-02-23T02:24:10.538Z,6.50
2023-02-23T02:26:41.683Z,10.70
2023-02-23T02:29:29.093Z,7.30
2023-02-23T02:32:28.250Z,6.70
2023-02-23T02:35:02.382Z,6.90
2023-02-23T02:37:36.418Z,9.00
2023-02-23T02:40:16.644Z,8.20
2023-02-23T02:43:11.774Z,7.50
2023-02-23T02:45:51.317Z,10.40
2023-02-23T02:48:33.405Z,6.80
2023-02-23T02:51:18.005Z,7.20
2023-02-23T02:53:51.421Z,6.00
2023-02-23T02:56:25.546Z,9.10
2023-02-23T02:58:55.051Z,7.50
2023-02-23T03:01:42.305Z,6.70
2023-02-23T03:04:44.171Z,6.10
2023-02-23T03:07:50.361Z,7.80
2023-02-23T03:10:53.054Z,7.20
2023-02-23T03:14:03.664Z,7.30
2023-02-23T03:17:10.283Z,6.40
2023-02-23T03:20:14.134Z,6.90
2023-02-23T03:23:14.390Z,6.90
2023-02-23T03:26:20.581Z,7.90
2023-02-23T03:29:28.967Z,5.90
2023-02-23T03:32:29.869Z,6.70
2023-02-23T03:35:26.096Z,8.10
2023-02-23T03:38:21.186Z,6.30
2023-02-23T03:41:12.628Z,6.80
2023-02-23T03:44:11.522Z,6.90
2023-02-23T03:47:01.771Z,6.10
2023-02-23T03:49:53.510Z,7.10
2023-02-23T03:52:48.490Z,7.70
2023-02-23T03:55:40.528Z,6.50
2023-02-23T03:58:34.683Z,6.60
2023-02-23T04:01:26.194Z,7.40
2023-02-23T04:04:16.920Z,6.30
2023-02-23T04:07:06.266Z,7.10
2023-02-23T04:09:53.934Z,7.90
2023-02-23T04:12:50.043Z,9.70
2023-02-23T04:15:24.526Z,7.40
2023-02-23T04:17:53.993Z,6.10
2023-02-23T04:20:22.784Z,9.90
2023-02-23T04:22:51.251Z,7.20
2023-02-23T04:25:23.105Z,7.10
2023-02-23T04:27:51.700Z,9.60
2023-02-23T04:30:20.835Z,8.70
2023-02-23T04:32:49.334Z,8.50
2023-02-23T04:35:18.221Z,8.60
2023-02-23T04:37:47.044Z,7.10
2023-02-23T04:40:15.618Z,6.10
2023-02-23T04:42:44.137Z,7.10
2023-02-23T04:45:12.657Z,6.10
2023-02-23T04:47:41.734Z,8.90
2023-02-23T04:50:11.551Z,9.20
2023-02-23T04:52:40.100Z,8.60
2023-02-23T04:55:13.196Z,6.50
2023-02-23T04:57:41.652Z,7.70
2023-02-23T05:00:11.311Z,9.00
2023-02-23T05:02:40.672Z,8.70
2023-02-23T05:05:10.024Z,7.20
2023-02-23T05:07:38.892Z,7.00
2023-02-23T05:10:07.905Z,6.90
2023-02-23T05:12:36.635Z,6.60
2023-02-23T05:15:05.860Z,7.90
2023-02-23T05:17:34.312Z,9.10
2023-02-23T05:20:02.758Z,7.30
2023-02-23T05:22:31.387Z,8.70
2023-02-23T05:24:59.823Z,9.10
2023-02-23T05:27:28.279Z,8.70
2023-02-23T05:29:56.820Z,8.00
2023-02-23T05:32:25.415Z,6.80
2023-02-23T05:34:53.983Z,6.50
2023-02-23T05:37:22.455Z,5.30
2023-02-23T05:39:50.949Z,7.20
2023-02-23T05:42:19.791Z,7.60
2023-02-23T05:44:48.784Z,9.10
2023-02-23T05:47:17.396Z,16.60
2023-02-23T05:49:46.549Z,13.50
2023-02-23T05:52:15.010Z,12.60
2023-02-23T05:54:43.540Z,12.60
2023-02-23T05:57:12.053Z,12.00
2023-02-23T05:59:40.679Z,14.00
2023-02-23T06:02:09.126Z,15.70
2023-02-23T06:04:37.565Z,14.40
2023-02-23T06:07:06.065Z,15.80
2023-02-23T06:09:34.550Z,10.70
2023-02-23T06:12:03.024Z,10.90
2023-02-23T06:14:32.645Z,9.40
2023-02-23T06:17:01.826Z,9.10
2023-02-23T06:19:31.996Z,8.40
2023-02-23T06:22:00.564Z,10.20
2023-02-23T06:24:29.177Z,11.30
2023-02-23T06:26:57.670Z,12.00
2023-02-23T06:29:26.351Z,12.10
2023-02-23T06:31:54.838Z,10.50
2023-02-23T06:34:23.271Z,7.40
2023-02-23T06:36:51.772Z,9.50
2023-02-23T06:39:20.323Z,8.30
2023-02-23T06:41:48.823Z,10.10
2023-02-23T06:44:17.285Z,9.00
2023-02-23T06:46:45.696Z,9.10
2023-02-23T06:49:16.501Z,7.70
2023-02-23T06:51:45.180Z,7.50
2023-02-23T06:54:13.740Z,6.40
2023-02-23T06:56:42.126Z,8.40
2023-02-23T06:59:10.631Z,8.70
2023-02-23T07:01:39.148Z,11.80
2023-02-23T07:04:07.686Z,9.10
2023-02-23T07:06:36.215Z,7.70
2023-02-23T07:09:07.235Z,7.00
2023-02-23T07:11:35.627Z,10.10
2023-02-23T07:14:04.107Z,9.10
2023-02-23T07:16:32.703Z,8.60
2023-02-23T07:19:01.229Z,9.50
2023-02-23T07:21:32.280Z,12.70
2023-02-23T07:24:03.563Z,9.10
2023-02-23T07:26:36.223Z,8.30
2023-02-23T07:29:04.737Z,8.10
2023-02-23T07:31:33.206Z,9.70
2023-02-23T07:34:01.733Z,10.20
2023-02-23T07:36:30.116Z,11.80
2023-02-23T07:38:58.657Z,9.30
2023-02-23T07:41:27.208Z,10.20
2023-02-23T07:43:55.810Z,9.30
2023-02-23T07:46:24.307Z,8.30
2023-02-23T07:48:54.356Z,9.90
2023-02-23T07:51:22.814Z,9.30
2023-02-23T07:53:51.312Z,10.00
2023-02-23T07:56:19.886Z,10.60
2023-02-23T07:58:48.444Z,9.30
2023-02-23T08:01:17.146Z,8.70
2023-02-23T08:03:49.876Z,11.20
2023-02-23T08:06:19.780Z,11.30
2023-02-23T08:08:48.315Z,13.40
2023-02-23T08:11:17.218Z,12.60
2023-02-23T08:13:45.962Z,9.40
2023-02-23T08:16:15.139Z,12.10
2023-02-23T08:18:43.633Z,10.80
2023-02-23T08:21:12.167Z,10.10
2023-02-23T08:23:40.684Z,8.50
2023-02-23T08:26:09.139Z,9.60
2023-02-23T08:28:38.042Z,9.30
2023-02-23T08:31:10.422Z,12.00
2023-02-23T08:33:39.548Z,9.90
2023-02-23T08:36:08.637Z,10.70
2023-02-23T08:38:37.081Z,9.80
2023-02-23T08:41:06.879Z,9.70
2023-02-23T08:43:35.346Z,9.90
2023-02-23T08:46:03.868Z,9.40
2023-02-23T08:48:33.202Z,10.60
2023-02-23T08:51:02.053Z,8.90
2023-02-23T08:53:31.006Z,10.50
2023-02-23T08:56:02.024Z,10.60
2023-02-23T08:58:31.397Z,9.40
2023-02-23T09:01:00.989Z,7.40
2023-02-23T09:03:30.942Z,8.30
2023-02-23T09:06:10.761Z,9.80
2023-02-23T09:08:39.386Z,11.60
2023-02-23T09:11:07.937Z,9.10
2023-02-23T09:13:36.366Z,9.10
2023-02-23T09:16:05.621Z,10.90
2023-02-23T09:18:35.003Z,9.90
2023-02-23T09:21:08.855Z,12.10
2023-02-23T09:23:37.844Z,10.90
2023-02-23T09:26:08.720Z,9.80
2023-02-23T09:28:38.932Z,10.20
2023-02-23T09:31:21.264Z,10.20
2023-02-23T09:33:51.795Z,10.80
2023-02-23T09:36:25.886Z,8.50
2023-02-23T09:38:57.392Z,9.80
2023-02-23T09:41:25.859Z,9.20
2023-02-23T09:44:26.695Z,9.80
2023-02-23T09:47:22.917Z,11.30
2023-02-23T09:49:52.453Z,12.60
2023-02-23T09:52:28.569Z,11.10
2023-02-23T09:54:58.516Z,12.10
2023-02-23T09:57:40.187Z,10.90
2023-02-23T10:00:28.624Z,8.80
2023-02-23T10:03:14.525Z,10.30
2023-02-23T10:05:48.517Z,10.40
2023-02-23T10:08:27.850Z,11.80
2023-02-23T10:11:03.041Z,10.60
2023-02-23T10:13:40.294Z,12.90
2023-02-23T10:16:12.774Z,12.70
2023-02-23T10:18:52.172Z,11.10
2023-02-23T10:21:43.161Z,11.90
2023-02-23T10:24:16.719Z,12.40
2023-02-23T10:26:54.564Z,11.90
2023-02-23T10:29:42.929Z,11.90
2023-02-23T10:32:27.784Z,12.40
2023-02-23T10:34:57.037Z,10.10
2023-02-23T10:37:26.421Z,11.90
2023-02-23T10:39:54.878Z,12.00
2023-02-23T10:42:32.219Z,10.70
2023-02-23T10:45:00.937Z,10.60
2023-02-23T10:47:35.851Z,12.20
2023-02-23T10:50:06.844Z,12.10
2023-02-23T10:52:53.042Z,11.30
2023-02-23T10:55:27.408Z,12.30
2023-02-23T10:58:17.171Z,12.90
2023-02-23T11:00:55.454Z,11.90
2023-02-23T11:04:05.346Z,10.20
2023-02-23T11:06:40.023Z,10.20
2023-02-23T11:09:45.081Z,11.60
2023-02-23T11:12:22.570Z,10.50
2023-02-23T11:14:53.895Z,11.10
2023-02-23T11:17:33.945Z,9.60
2023-02-23T11:20:23.411Z,10.60
2023-02-23T11:22:52.594Z,12.10
2023-02-23T11:25:29.481Z,12.90
2023-02-23T11:27:59.306Z,12.20
2023-02-23T11:30:37.800Z,12.40
2023-02-23T11:33:11.593Z,10.80
2023-02-23T11:35:40.235Z,11.20
2023-02-23T11:38:22.412Z,10.00
2023-02-23T11:41:22.159Z,12.50
2023-02-23T11:43:56.931Z,11.40
2023-02-23T11:46:28.026Z,11.30
2023-02-23T11:49:07.771Z,10.90
2023-02-23T11:51:46.652Z,10.70
2023-02-23T11:54:30.255Z,11.00
2023-02-23T11:57:02.955Z,9.40
2023-02-23T11:59:42.163Z,10.00
2023-02-23T12:02:30.509Z,10.10
2023-02-23T12:05:10.401Z,11.20
2023-02-23T12:07:54.791Z,11.10
2023-02-23T12:10:28.565Z,11.00
2023-02-23T12:13:08.720Z,11.90
2023-02-23T12:15:59.041Z,10.30
2023-02-23T12:18:39.690Z,10.50
2023-02-23T12:21:14.715Z,12.60
2023-02-23T12:23:50.807Z,10.60
2023-02-23T12:26:23.645Z,11.90
2023-02-23T12:28:59.839Z,11.70
2023-02-23T12:31:34.136Z,12.40
2023-02-23T12:34:22.165Z,11.60
2023-02-23T12:37:07.794Z,9.90
2023-02-23T12:39:41.943Z,12.20
2023-02-23T12:42:49.042Z,10.10
2023-02-23T12:45:37.671Z,12.00
2023-02-23T12:48:25.168Z,13.40
2023-02-23T12:50:56.852Z,12.70
2023-02-23T12:53:34.352Z,11.00
2023-02-23T12:56:21.520Z,10.90
2023-02-23T12:59:08.901Z,12.10
2023-02-23T13:01:53.412Z,12.60
2023-02-23T13:04:22.904Z,11.70
2023-02-23T13:07:06.066Z,12.20
2023-02-23T13:09:53.346Z,10.80
2023-02-23T13:12:41.604Z,12.10
2023-02-23T13:15:20.049Z,12.30
2023-02-23T13:17:51.530Z,10.80
2023-02-23T13:20:26.363Z,12.90
2023-02-23T13:23:01.546Z,10.10
2023-02-23T13:25:54.470Z,13.20
2023-02-23T13:28:56.566Z,12.80
2023-02-23T13:31:33.891Z,12.60
2023-02-23T13:34:05.380Z,11.90
2023-02-23T13:36:36.790Z,10.00
2023-02-23T13:39:18.501Z,10.40
2023-02-23T13:41:53.844Z,11.70
2023-02-23T13:44:53.051Z,11.80
2023-02-23T13:47:45.699Z,12.10
2023-02-23T13:50:28.222Z,12.30
2023-02-23T13:53:02.044Z,12.90
2023-02-23T13:55:48.795Z,10.90
2023-02-23T13:58:29.834Z,10.00
2023-02-23T14:01:27.875Z,10.20
2023-02-23T14:04:00.828Z,10.60
2023-02-23T14:06:34.391Z,12.60
2023-02-23T14:09:24.119Z,10.10
2023-02-23T14:12:02.598Z,10.20
2023-02-23T14:14:31.107Z,10.80
2023-02-23T14:17:14.760Z,8.10
2023-02-23T14:20:01.791Z,10.00
2023-02-23T14:22:30.356Z,9.90
2023-02-23T14:25:34.231Z,9.30
2023-02-23T14:28:23.257Z,9.60
2023-02-23T14:31:11.275Z,10.80
2023-02-23T14:33:43.029Z,9.20
2023-02-23T14:36:23.992Z,9.80
2023-02-23T14:39:03.591Z,11.50
2023-02-23T14:41:56.194Z,11.00
2023-02-23T14:44:51.716Z,12.00
2023-02-23T14:47:26.727Z,9.20
2023-02-23T14:49:59.872Z,10.60
2023-02-23T14:52:34.660Z,12.00
2023-02-23T14:55:22.367Z,10.50
2023-02-23T14:57:52.773Z,10.80
2023-02-23T15:00:25.897Z,10.80
2023-02-23T15:03:02.503Z,12.10
2023-02-23T15:05:34.518Z,13.70
2023-02-23T15:08:11.123Z,12.60
2023-02-23T15:10:45.893Z,8.50
2023-02-23T15:13:34.053Z,14.90
2023-02-23T15:16:08.421Z,12.70
2023-02-23T15:18:40.765Z,11.70
2023-02-23T15:21:16.608Z,13.90
2023-02-23T15:23:48.581Z,15.50
2023-02-23T15:26:38.184Z,11.70
2023-02-23T15:29:25.175Z,9.80
2023-02-23T15:31:56.322Z,12.20
2023-02-23T15:34:27.792Z,11.90
2023-02-23T15:37:05.764Z,15.00
2023-02-23T15:39:41.446Z,11.20
2023-02-23T15:42:16.017Z,12.20
2023-02-23T15:44:45.579Z,11.20
2023-02-23T15:47:23.406Z,12.80
2023-02-23T15:49:52.066Z,12.80
2023-02-23T15:52:25.769Z,14.30
2023-02-23T15:55:07.228Z,11.30
2023-02-23T15:57:47.708Z,12.80
2023-02-23T16:00:32.748Z,12.00
2023-02-23T16:03:03.859Z,16.20
2023-02-23T16:05:46.582Z,15.10
2023-02-23T16:08:23.459Z,13.80
2023-02-23T16:11:04.563Z,15.40
2023-02-23T16:13:33.228Z,14.60
2023-02-23T16:16:01.888Z,15.50
2023-02-23T16:18:39.921Z,15.30
2023-02-23T16:21:17.131Z,16.70
2023-02-23T16:23:49.462Z,20.20
2023-02-23T16:26:25.387Z,20.70
2023-02-23T16:29:00.423Z,20.50
2023-02-23T16:31:58.444Z,20.50
2023-02-23T16:34:31.828Z,19.30
2023-02-23T16:37:04.224Z,18.80
2023-02-23T16:39:34.574Z,18.30
2023-02-23T16:42:03.119Z,28.60
2023-02-23T16:44:42.994Z,19.00
2023-02-23T16:47:20.907Z,24.90
2023-02-23T16:49:50.993Z,24.80
2023-02-23T16:52:25.593Z,32.00
2023-02-23T16:54:56.007Z,28.00
2023-02-23T16:57:28.686Z,29.80
2023-02-23T16:59:57.855Z,30.00
2023-02-23T17:02:26.476Z,98.70
2023-02-23T17:04:59.063Z,112.00
2023-02-23T17:07:27.753Z,209.50
2023-02-23T17:09:56.310Z,51.10
2023-02-23T17:12:24.761Z,53.30
2023-02-23T17:14:53.326Z,36.70
2023-02-23T17:17:21.948Z,36.70
2023-02-23T17:19:50.379Z,38.30
2023-02-23T17:22:18.943Z,35.40
2023-02-23T17:24:47.436Z,33.30
2023-02-23T17:27:15.999Z,34.20
2023-02-23T17:29:44.805Z,46.20
2023-02-23T17:32:13.286Z,41.20
2023-02-23T17:34:42.307Z,38.80
2023-02-23T17:37:10.751Z,32.50
2023-02-23T17:39:41.326Z,35.20
2023-02-23T17:42:10.007Z,38.90
2023-02-23T17:44:38.471Z,41.30
2023-02-23T17:47:06.981Z,42.00
2023-02-23T17:49:35.722Z,42.40
2023-02-23T17:52:04.315Z,57.50
2023-02-23T17:54:32.777Z,47.00
2023-02-23T17:57:01.284Z,45.40
2023-02-23T17:59:29.775Z,36.60
2023-02-23T18:01:58.357Z,34.80
2023-02-23T18:04:26.796Z,28.00
2023-02-23T18:06:57.512Z,23.70
2023-02-23T18:12:22.136Z,21.30
2023-02-23T18:14:50.712Z,19.60
2023-02-23T18:17:19.154Z,18.60
2023-02-23T18:19:48.091Z,19.20
2023-02-23T18:22:16.778Z,22.30
2023-02-23T18:24:45.324Z,19.60
2023-02-23T18:27:13.780Z,18.10
2023-02-23T18:29:42.248Z,20.00
2023-02-23T18:32:12.009Z,23.30
2023-02-23T18:34:40.559Z,21.20
2023-02-23T18:37:10.366Z,24.40
2023-02-23T18:39:38.838Z,22.40
2023-02-23T18:42:07.327Z,23.60
2023-02-23T18:44:35.903Z,20.10
2023-02-23T18:47:04.457Z,18.40
2023-02-23T18:49:38.354Z,18.10
2023-02-23T18:52:37.205Z,14.40
2023-02-23T18:55:17.941Z,20.20
2023-02-23T18:57:46.438Z,19.20
2023-02-23T19:00:17.553Z,19.20
2023-02-23T19:02:46.809Z,16.30
2023-02-23T19:05:20.158Z,16.80
2023-02-23T19:07:49.572Z,17.30
2023-02-23T19:10:18.210Z,19.50
2023-02-23T19:12:46.728Z,21.30
2023-02-23T19:15:15.175Z,21.40
2023-02-23T19:17:44.637Z,24.70
2023-02-23T19:20:14.507Z,23.50
2023-02-23T19:22:46.177Z,20.70
2023-02-23T19:28:57.076Z,20.70
2023-02-23T19:31:56.274Z,14.40
2023-02-23T19:34:24.906Z,17.10
2023-02-23T19:36:53.330Z,19.10
2023-02-23T19:39:21.777Z,15.90
2023-02-23T19:41:50.258Z,20.80
2023-02-23T19:44:18.852Z,17.50
2023-02-23T19:46:47.280Z,21.90
2023-02-23T19:49:17.100Z,20.70
2023-02-23T19:51:45.606Z,18.80
2023-02-23T19:54:14.054Z,18.10
2023-02-23T19:56:43.708Z,20.50
2023-02-23T19:59:12.504Z,21.80
2023-02-23T20:01:40.972Z,24.00
2023-02-23T20:04:11.045Z,24.20
2023-02-23T20:06:45.273Z,20.80
2023-02-23T20:12:13.102Z,17.10
2023-02-23T20:14:44.893Z,21.80
2023-02-23T20:17:14.618Z,25.60
2023-02-23T20:23:08.207Z,24.80
2023-02-23T20:25:37.057Z,28.30
2023-02-23T20:28:08.247Z,24.80
2023-02-23T20:30:36.869Z,18.90
2023-02-23T20:33:06.024Z,18.60
2023-02-23T20:35:35.037Z,16.30
2023-02-23T20:38:04.933Z,18.00
2023-02-23T20:40:34.262Z,16.20
2023-02-23T20:43:02.701Z,19.20
2023-02-23T20:45:31.333Z,20.60
2023-02-23T20:47:59.782Z,20.80
2023-02-23T20:50:34.095Z,16.50
2023-02-23T20:53:05.294Z,25.50
2023-02-23T20:55:33.786Z,23.20
2023-02-23T20:58:02.280Z,24.60
2023-02-23T21:00:34.050Z,26.40
2023-02-23T21:03:03.311Z,25.00
2023-02-23T21:05:40.630Z,23.20
2023-02-23T21:08:10.034Z,21.80
2023-02-23T21:10:40.155Z,21.10
2023-02-23T21:13:12.342Z,26.00
2023-02-23T21:15:43.551Z,24.20
2023-02-23T21:18:12.429Z,22.30
2023-02-23T21:20:41.217Z,22.40
2023-02-23T21:23:09.721Z,25.70
2023-02-23T21:25:38.827Z,30.40
2023-02-23T21:28:07.514Z,25.20
2023-02-23T21:30:35.949Z,24.10
2023-02-23T21:33:04.579Z,26.40
2023-02-23T21:35:35.462Z,27.40
2023-02-23T21:38:04.563Z,32.70
2023-02-23T21:40:33.044Z,30.90
2023-02-23T21:43:01.576Z,25.20
2023-02-23T21:45:30.003Z,26.10
2023-02-23T21:47:58.432Z,30.50
2023-02-23T21:50:27.073Z,24.70
2023-02-23T21:52:58.083Z,23.10
2023-02-23T21:55:26.534Z,22.70
2023-02-23T21:57:55.697Z,27.10
2023-02-23T22:00:24.944Z,28.50
2023-02-23T22:02:53.422Z,29.20
2023-02-23T22:05:22.004Z,23.60
2023-02-23T22:07:52.187Z,33.90
2023-02-23T22:10:24.176Z,24.50
2023-02-23T22:12:57.031Z,24.70
2023-02-23T22:15:29.005Z,25.60
2023-02-23T22:17:57.454Z,26.10
2023-02-23T22:20:26.504Z,26.50
2023-02-23T22:22:55.036Z,24.80
2023-02-23T22:25:23.696Z,22.30
2023-02-23T22:27:52.125Z,27.00
2023-02-23T22:30:23.186Z,25.10
2023-02-23T22:32:51.896Z,26.40
2023-02-23T22:35:20.453Z,23.20
2023-02-23T22:37:48.850Z,23.00
2023-02-23T22:40:17.625Z,25.60
2023-02-23T22:42:48.688Z,23.30
2023-02-23T22:45:17.979Z,25.90
2023-02-23T22:47:46.523Z,22.40
2023-02-23T22:50:18.355Z,25.60
2023-02-23T22:52:47.298Z,24.00
2023-02-23T22:55:16.044Z,24.70
2023-02-23T22:57:46.210Z,23.20
2023-02-23T23:00:18.929Z,25.10
2023-02-23T23:02:48.457Z,26.40
2023-02-23T23:05:18.199Z,22.30
2023-02-23T23:07:49.394Z,24.80
2023-02-23T23:10:18.246Z,27.80
2023-02-23T23:12:47.120Z,20.70
2023-02-23T23:15:17.529Z,21.60
2023-02-23T23:17:50.341Z,25.60
2023-02-23T23:20:26.056Z,26.60
2023-02-23T23:22:57.585Z,22.60
2023-02-23T23:25:28.160Z,20.40
2023-02-23T23:27:58.081Z,25.40
2023-02-23T23:30:29.689Z,24.50
2023-02-23T23:32:58.282Z,20.60
2023-02-23T23:35:26.880Z,25.60
2023-02-23T23:37:55.437Z,23.60
2023-02-23T23:40:24.846Z,24.30
2023-02-23T23:42:55.408Z,23.80
2023-02-23T23:45:27.676Z,21.20
2023-02-23T23:47:56.149Z,22.80
2023-02-23T23:50:27.525Z,21.80
2023-02-23T23:52:57.329Z,21.20
2023-02-23T23:55:31.596Z,22.30
2023-02-23T23:58:00.644Z,23.70
